sensor_id;sensor_type;location;lat;lon;timestamp;pressure;altitude;pressure_sealevel;temperature;humidity
61357;BME280;47227;46.752;23.576;2023-03-05T00:55:27;95690.88;;;-0.53;65.84
61357;BME280;47227;46.752;23.576;2023-03-05T01:12:28;95691.79;;;-0.54;65.23
61357;BME280;47227;46.752;23.576;2023-03-05T01:22:41;95692.29;;;-0.56;65.57
61357;BME280;47227;46.752;23.576;2023-03-05T01:35:31;95680.11;;;-0.52;65.65
61357;BME280;47227;46.752;23.576;2023-03-05T01:38:44;95681.20;;;-0.46;65.81
61357;BME280;47227;46.752;23.576;2023-03-05T01:41:39;95681.42;;;-0.37;65.84
61357;BME280;47227;46.752;23.576;2023-03-05T01:51:23;95681.58;;;-0.15;66.36
61357;BME280;47227;46.752;23.576;2023-03-05T01:58:28;95677.55;;;-0.06;65.93
61357;BME280;47227;46.752;23.576;2023-03-05T02:05:12;95681.20;;;-0.07;65.71
61357;BME280;47227;46.752;23.576;2023-03-05T02:08:30;95684.44;;;-0.10;65.54
61357;BME280;47227;46.752;23.576;2023-03-05T02:11:46;95688.36;;;-0.14;65.20
61357;BME280;47227;46.752;23.576;2023-03-05T02:15:22;95690.61;;;-0.18;65.14
61357;BME280;47227;46.752;23.576;2023-03-05T02:18:31;95689.56;;;-0.23;65.03
61357;BME280;47227;46.752;23.576;2023-03-05T02:21:52;95688.73;;;-0.27;64.90
61357;BME280;47227;46.752;23.576;2023-03-05T02:25:10;95685.37;;;-0.31;65.13
61357;BME280;47227;46.752;23.576;2023-03-05T02:31:27;95691.35;;;-0.38;64.91
61357;BME280;47227;46.752;23.576;2023-03-05T02:33:56;95686.96;;;-0.42;64.70
61357;BME280;47227;46.752;23.576;2023-03-05T02:36:25;95688.73;;;-0.46;64.90
61357;BME280;47227;46.752;23.576;2023-03-05T02:38:53;95688.77;;;-0.48;65.31
61357;BME280;47227;46.752;23.576;2023-03-05T02:41:24;95689.12;;;-0.50;65.15
61357;BME280;47227;46.752;23.576;2023-03-05T02:43:52;95691.80;;;-0.51;65.07
61357;BME280;47227;46.752;23.576;2023-03-05T02:46:20;95696.07;;;-0.53;65.06
61357;BME280;47227;46.752;23.576;2023-03-05T02:48:49;95697.45;;;-0.56;65.08
61357;BME280;47227;46.752;23.576;2023-03-05T02:51:17;95697.91;;;-0.58;65.49
61357;BME280;47227;46.752;23.576;2023-03-05T02:53:46;95696.29;;;-0.60;65.24
61357;BME280;47227;46.752;23.576;2023-03-05T02:56:15;95697.59;;;-0.62;65.23
61357;BME280;47227;46.752;23.576;2023-03-05T02:58:43;95699.31;;;-0.64;65.22
61357;BME280;47227;46.752;23.576;2023-03-05T03:01:11;95694.91;;;-0.66;65.29
61357;BME280;47227;46.752;23.576;2023-03-05T03:03:39;95694.83;;;-0.68;65.22
61357;BME280;47227;46.752;23.576;2023-03-05T03:06:09;95696.20;;;-0.68;65.66
61357;BME280;47227;46.752;23.576;2023-03-05T03:08:37;95693.27;;;-0.68;65.50
61357;BME280;47227;46.752;23.576;2023-03-05T03:11:07;95691.21;;;-0.69;65.43
61357;BME280;47227;46.752;23.576;2023-03-05T03:13:37;95693.46;;;-0.71;65.75
61357;BME280;47227;46.752;23.576;2023-03-05T03:16:11;95686.70;;;-0.73;65.64
61357;BME280;47227;46.752;23.576;2023-03-05T03:18:40;95683.48;;;-0.76;65.43
61357;BME280;47227;46.752;23.576;2023-03-05T03:21:15;95682.48;;;-0.79;65.41
61357;BME280;47227;46.752;23.576;2023-03-05T03:23:44;95682.22;;;-0.84;65.17
61357;BME280;47227;46.752;23.576;2023-03-05T03:26:13;95683.23;;;-0.88;65.34
61357;BME280;47227;46.752;23.576;2023-03-05T03:28:41;95682.69;;;-0.92;65.61
61357;BME280;47227;46.752;23.576;2023-03-05T03:31:10;95681.88;;;-0.96;65.65
61357;BME280;47227;46.752;23.576;2023-03-05T03:33:38;95678.41;;;-0.99;65.79
61357;BME280;47227;46.752;23.576;2023-03-05T03:36:08;95684.73;;;-1.00;65.70
61357;BME280;47227;46.752;23.576;2023-03-05T03:38:37;95688.57;;;-1.02;65.59
61357;BME280;47227;46.752;23.576;2023-03-05T03:41:09;95690.17;;;-1.04;66.31
61357;BME280;47227;46.752;23.576;2023-03-05T03:43:37;95693.66;;;-1.06;66.24
61357;BME280;47227;46.752;23.576;2023-03-05T03:46:06;95690.55;;;-1.08;66.54
61357;BME280;47227;46.752;23.576;2023-03-05T03:48:34;95696.79;;;-1.10;67.41
61357;BME280;47227;46.752;23.576;2023-03-05T03:51:05;95698.71;;;-1.12;67.41
61357;BME280;47227;46.752;23.576;2023-03-05T03:53:33;95698.80;;;-1.11;67.63
61357;BME280;47227;46.752;23.576;2023-03-05T03:56:02;95705.40;;;-1.08;67.69
61357;BME280;47227;46.752;23.576;2023-03-05T03:58:31;95703.58;;;-1.02;68.21
61357;BME280;47227;46.752;23.576;2023-03-05T04:00:59;95701.85;;;-1.00;68.58
61357;BME280;47227;46.752;23.576;2023-03-05T04:03:27;95696.17;;;-0.95;68.10
61357;BME280;47227;46.752;23.576;2023-03-05T04:05:56;95695.46;;;-0.95;68.09
61357;BME280;47227;46.752;23.576;2023-03-05T04:08:25;95697.10;;;-0.93;68.59
61357;BME280;47227;46.752;23.576;2023-03-05T04:10:53;95699.64;;;-0.91;68.52
61357;BME280;47227;46.752;23.576;2023-03-05T04:13:21;95700.70;;;-0.88;68.75
61357;BME280;47227;46.752;23.576;2023-03-05T04:15:49;95697.17;;;-0.87;68.73
61357;BME280;47227;46.752;23.576;2023-03-05T04:18:37;95697.85;;;-0.87;68.59
61357;BME280;47227;46.752;23.576;2023-03-05T04:29:09;95695.55;;;-0.86;68.97
61357;BME280;47227;46.752;23.576;2023-03-05T04:32:35;95693.25;;;-0.89;68.55
61357;BME280;47227;46.752;23.576;2023-03-05T04:39:49;95696.38;;;-0.94;68.32
61357;BME280;47227;46.752;23.576;2023-03-05T04:43:23;95702.80;;;-1.02;68.20
61357;BME280;47227;46.752;23.576;2023-03-05T04:46:39;95701.95;;;-1.09;68.16
61357;BME280;47227;46.752;23.576;2023-03-05T04:50:19;95696.91;;;-1.16;68.32
61357;BME280;47227;46.752;23.576;2023-03-05T04:53:52;95699.48;;;-1.16;68.81
61357;BME280;47227;46.752;23.576;2023-03-05T04:57:51;95692.89;;;-1.06;68.93
61357;BME280;47227;46.752;23.576;2023-03-05T05:21:55;95719.42;;;-0.95;69.22
61357;BME280;47227;46.752;23.576;2023-03-05T05:49:44;95729.23;;;-0.66;69.00
61357;BME280;47227;46.752;23.576;2023-03-05T05:52:46;95733.40;;;-0.60;68.65
61357;BME280;47227;46.752;23.576;2023-03-05T06:06:53;95757.42;;;-0.38;67.76
61357;BME280;47227;46.752;23.576;2023-03-05T06:10:07;95763.70;;;-0.33;67.59
61357;BME280;47227;46.752;23.576;2023-03-05T06:15:56;95768.38;;;-0.27;67.30
61357;BME280;47227;46.752;23.576;2023-03-05T06:19:32;95773.77;;;-0.25;67.23
61357;BME280;47227;46.752;23.576;2023-03-05T06:26:23;95778.32;;;-0.19;66.94
61357;BME280;47227;46.752;23.576;2023-03-05T06:29:51;95787.55;;;-0.14;66.99
61357;BME280;47227;46.752;23.576;2023-03-05T06:33:02;95786.42;;;-0.05;66.68
61357;BME280;47227;46.752;23.576;2023-03-05T06:36:12;95790.58;;;0.10;66.71
61357;BME280;47227;46.752;23.576;2023-03-05T06:42:51;95789.02;;;0.46;66.13
61357;BME280;47227;46.752;23.576;2023-03-05T06:49:53;95784.36;;;0.77;65.62
61357;BME280;47227;46.752;23.576;2023-03-05T06:53:36;95786.20;;;0.95;65.23
61357;BME280;47227;46.752;23.576;2023-03-05T06:57:19;95781.79;;;1.07;64.20
61357;BME280;47227;46.752;23.576;2023-03-05T07:00:42;95780.23;;;1.22;64.26
61357;BME280;47227;46.752;23.576;2023-03-05T07:03:56;95783.44;;;1.33;63.86
61357;BME280;47227;46.752;23.576;2023-03-05T07:07:26;95789.30;;;1.45;63.40
61357;BME280;47227;46.752;23.576;2023-03-05T07:14:42;95792.51;;;1.71;63.09
61357;BME280;47227;46.752;23.576;2023-03-05T07:21:27;95795.32;;;1.92;62.35
61357;BME280;47227;46.752;23.576;2023-03-05T07:28:00;95794.27;;;1.93;61.41
61357;BME280;47227;46.752;23.576;2023-03-05T07:31:28;95793.70;;;1.86;61.30
61357;BME280;47227;46.752;23.576;2023-03-05T07:35:02;95795.95;;;1.83;61.54
61357;BME280;47227;46.752;23.576;2023-03-05T07:37:52;95794.92;;;1.82;61.44
61357;BME280;47227;46.752;23.576;2023-03-05T07:41:25;95796.62;;;1.82;61.33
61357;BME280;47227;46.752;23.576;2023-03-05T07:45:08;95795.02;;;1.85;61.57
61357;BME280;47227;46.752;23.576;2023-03-05T07:48:34;95798.98;;;1.90;61.18
61357;BME280;47227;46.752;23.576;2023-03-05T07:58:23;95792.71;;;2.17;61.04
61357;BME280;47227;46.752;23.576;2023-03-05T08:13:22;95784.58;;;2.70;60.29
61357;BME280;47227;46.752;23.576;2023-03-05T08:27:11;95773.24;;;2.78;57.69
61357;BME280;47227;46.752;23.576;2023-03-05T08:45:42;95773.38;;;3.53;54.08
61357;BME280;47227;46.752;23.576;2023-03-05T09:00:32;95764.15;;;4.14;51.81
61357;BME280;47227;46.752;23.576;2023-03-05T09:13:55;95763.52;;;4.79;48.16
61357;BME280;47227;46.752;23.576;2023-03-05T09:21:18;95761.36;;;5.15;47.80
61357;BME280;47227;46.752;23.576;2023-03-05T09:35:38;95751.04;;;6.47;46.99
61357;BME280;47227;46.752;23.576;2023-03-05T09:38:47;95754.76;;;6.60;46.43
61357;BME280;47227;46.752;23.576;2023-03-05T09:42:41;95751.62;;;6.95;47.38
61357;BME280;47227;46.752;23.576;2023-03-05T09:49:45;95744.65;;;7.09;44.92
61357;BME280;47227;46.752;23.576;2023-03-05T09:52:55;95740.63;;;6.95;43.56
61357;BME280;47227;46.752;23.576;2023-03-05T09:56:12;95744.73;;;6.62;44.04
61357;BME280;47227;46.752;23.576;2023-03-05T09:59:13;95741.64;;;6.23;43.36
61357;BME280;47227;46.752;23.576;2023-03-05T10:02:29;95745.52;;;5.86;43.54
61357;BME280;47227;46.752;23.576;2023-03-05T10:05:19;95740.38;;;5.63;43.86
61357;BME280;47227;46.752;23.576;2023-03-05T10:08:51;95737.54;;;5.84;42.76
61357;BME280;47227;46.752;23.576;2023-03-05T10:15:52;95733.17;;;5.85;43.21
61357;BME280;47227;46.752;23.576;2023-03-05T10:18:59;95732.20;;;6.00;42.51
61357;BME280;47227;46.752;23.576;2023-03-05T10:22:22;95728.31;;;6.26;42.43
61357;BME280;47227;46.752;23.576;2023-03-05T10:26:11;95725.35;;;6.36;40.88
61357;BME280;47227;46.752;23.576;2023-03-05T10:33:43;95713.01;;;6.60;39.60
61357;BME280;47227;46.752;23.576;2023-03-05T10:43:57;95704.45;;;6.15;40.69
61357;BME280;47227;46.752;23.576;2023-03-05T10:47:36;95704.90;;;6.28;40.79
61357;BME280;47227;46.752;23.576;2023-03-05T10:50:59;95700.58;;;6.42;40.29
61357;BME280;47227;46.752;23.576;2023-03-05T10:54:27;95697.39;;;6.39;41.20
61357;BME280;47227;46.752;23.576;2023-03-05T10:57:39;95687.82;;;6.49;41.00
61357;BME280;47227;46.752;23.576;2023-03-05T11:02:00;95684.20;;;6.77;40.60
61357;BME280;47227;46.752;23.576;2023-03-05T11:05:13;95677.94;;;6.63;40.70
61357;BME280;47227;46.752;23.576;2023-03-05T11:08:55;95678.80;;;6.89;40.73
61357;BME280;47227;46.752;23.576;2023-03-05T11:12:05;95674.39;;;6.87;40.39
61357;BME280;47227;46.752;23.576;2023-03-05T11:15:57;95670.55;;;6.48;40.74
61357;BME280;47227;46.752;23.576;2023-03-05T11:19:29;95666.31;;;6.70;40.54
61357;BME280;47227;46.752;23.576;2023-03-05T11:26:45;95652.91;;;7.20;40.94
61357;BME280;47227;46.752;23.576;2023-03-05T11:30:54;95647.70;;;7.63;39.71
61357;BME280;47227;46.752;23.576;2023-03-05T11:34:29;95639.44;;;7.54;38.83
61357;BME280;47227;46.752;23.576;2023-03-05T11:38:15;95629.61;;;7.95;38.47
61357;BME280;47227;46.752;23.576;2023-03-05T11:41:06;95626.30;;;8.69;37.42
61357;BME280;47227;46.752;23.576;2023-03-05T11:44:13;95623.50;;;9.14;36.52
61357;BME280;47227;46.752;23.576;2023-03-05T11:47:36;95621.70;;;9.43;35.75
61357;BME280;47227;46.752;23.576;2023-03-05T11:50:31;95624.19;;;9.16;35.07
61357;BME280;47227;46.752;23.576;2023-03-05T11:53:23;95620.98;;;9.14;36.25
61357;BME280;47227;46.752;23.576;2023-03-05T11:56:18;95621.33;;;9.70;36.59
61357;BME280;47227;46.752;23.576;2023-03-05T11:59:31;95623.71;;;9.61;34.60
61357;BME280;47227;46.752;23.576;2023-03-05T12:02:46;95616.59;;;9.14;34.87
61357;BME280;47227;46.752;23.576;2023-03-05T12:06:09;95613.47;;;8.98;35.68
61357;BME280;47227;46.752;23.576;2023-03-05T12:12:46;95599.58;;;9.15;35.98
61357;BME280;47227;46.752;23.576;2023-03-05T12:16:14;95596.11;;;8.99;35.75
61357;BME280;47227;46.752;23.576;2023-03-05T12:19:27;95596.48;;;9.21;36.10
61357;BME280;47227;46.752;23.576;2023-03-05T12:22:33;95588.44;;;9.14;35.35
61357;BME280;47227;46.752;23.576;2023-03-05T12:25:57;95577.77;;;9.26;34.84
61357;BME280;47227;46.752;23.576;2023-03-05T12:29:25;95578.09;;;8.85;35.09
61357;BME280;47227;46.752;23.576;2023-03-05T12:35:52;95570.83;;;8.98;34.85
61357;BME280;47227;46.752;23.576;2023-03-05T12:38:49;95571.14;;;8.97;34.97
61357;BME280;47227;46.752;23.576;2023-03-05T12:41:43;95571.80;;;9.40;35.25
61357;BME280;47227;46.752;23.576;2023-03-05T12:44:41;95574.24;;;9.52;35.99
61357;BME280;47227;46.752;23.576;2023-03-05T12:54:36;95576.45;;;8.74;36.07
61357;BME280;47227;46.752;23.576;2023-03-05T12:57:18;95576.18;;;8.56;36.83
61357;BME280;47227;46.752;23.576;2023-03-05T12:59:52;95577.66;;;8.65;37.11
61357;BME280;47227;46.752;23.576;2023-03-05T13:02:29;95577.84;;;8.68;37.27
61357;BME280;47227;46.752;23.576;2023-03-05T13:05:02;95570.13;;;7.89;38.30
61357;BME280;47227;46.752;23.576;2023-03-05T13:07:31;95569.89;;;7.59;39.20
61357;BME280;47227;46.752;23.576;2023-03-05T13:11:01;95565.46;;;7.36;39.72
61357;BME280;47227;46.752;23.576;2023-03-05T13:13:49;95559.05;;;7.37;39.50
61357;BME280;47227;46.752;23.576;2023-03-05T13:16:21;95558.91;;;7.30;39.76
61357;BME280;47227;46.752;23.576;2023-03-05T13:18:51;95555.98;;;7.21;40.02
61357;BME280;47227;46.752;23.576;2023-03-05T13:21:25;95556.92;;;7.07;39.86
61357;BME280;47227;46.752;23.576;2023-03-05T13:23:56;95551.47;;;7.09;40.07
61357;BME280;47227;46.752;23.576;2023-03-05T13:26:26;95558.39;;;6.95;39.80
61357;BME280;47227;46.752;23.576;2023-03-05T13:29:18;95560.55;;;6.85;39.68
61357;BME280;47227;46.752;23.576;2023-03-05T13:31:51;95566.31;;;6.87;39.29
61357;BME280;47227;46.752;23.576;2023-03-05T13:34:30;95556.35;;;6.45;39.88
61357;BME280;47227;46.752;23.576;2023-03-05T13:37:16;95557.85;;;6.26;40.50
61357;BME280;47227;46.752;23.576;2023-03-05T13:39:55;95557.31;;;6.29;40.27
61357;BME280;47227;46.752;23.576;2023-03-05T13:42:28;95558.10;;;6.25;40.67
61357;BME280;47227;46.752;23.576;2023-03-05T13:45:00;95567.05;;;6.08;42.47
61357;BME280;47227;46.752;23.576;2023-03-05T13:47:31;95565.68;;;5.90;44.74
61357;BME280;47227;46.752;23.576;2023-03-05T13:50:03;95566.20;;;5.75;45.52
61357;BME280;47227;46.752;23.576;2023-03-05T13:52:35;95568.64;;;5.60;46.18
61357;BME280;47227;46.752;23.576;2023-03-05T13:55:11;95568.48;;;5.29;47.35
61357;BME280;47227;46.752;23.576;2023-03-05T13:57:46;95563.41;;;5.12;47.95
61357;BME280;47227;46.752;23.576;2023-03-05T14:00:30;95565.36;;;5.11;49.03
61357;BME280;47227;46.752;23.576;2023-03-05T14:03:09;95568.70;;;5.14;49.22
61357;BME280;47227;46.752;23.576;2023-03-05T14:05:42;95566.32;;;5.09;49.02
61357;BME280;47227;46.752;23.576;2023-03-05T14:08:21;95567.92;;;5.17;48.68
61357;BME280;47227;46.752;23.576;2023-03-05T14:10:51;95572.88;;;5.04;48.67
61357;BME280;47227;46.752;23.576;2023-03-05T14:13:22;95571.48;;;4.89;48.96
61357;BME280;47227;46.752;23.576;2023-03-05T14:16:22;95571.95;;;4.95;48.23
61357;BME280;47227;46.752;23.576;2023-03-05T14:18:53;95566.08;;;4.87;49.23
61357;BME280;47227;46.752;23.576;2023-03-05T14:21:22;95566.23;;;4.72;49.72
61357;BME280;47227;46.752;23.576;2023-03-05T14:23:52;95570.27;;;4.72;49.57
61357;BME280;47227;46.752;23.576;2023-03-05T14:26:40;95568.48;;;4.75;49.14
61357;BME280;47227;46.752;23.576;2023-03-05T14:29:16;95565.40;;;4.77;48.95
61357;BME280;47227;46.752;23.576;2023-03-05T14:31:52;95558.13;;;4.74;50.04
61357;BME280;47227;46.752;23.576;2023-03-05T14:34:26;95561.71;;;4.65;49.70
61357;BME280;47227;46.752;23.576;2023-03-05T14:36:59;95561.58;;;4.66;49.58
61357;BME280;47227;46.752;23.576;2023-03-05T14:39:31;95559.73;;;4.62;49.78
61357;BME280;47227;46.752;23.576;2023-03-05T14:42:28;95563.23;;;4.59;50.16
61357;BME280;47227;46.752;23.576;2023-03-05T14:44:59;95560.66;;;4.41;51.86
61357;BME280;47227;46.752;23.576;2023-03-05T14:47:28;95560.73;;;4.27;52.18
61357;BME280;47227;46.752;23.576;2023-03-05T14:49:56;95555.66;;;4.31;52.55
61357;BME280;47227;46.752;23.576;2023-03-05T14:52:24;95554.75;;;4.18;54.13
61357;BME280;47227;46.752;23.576;2023-03-05T14:54:53;95555.10;;;4.14;54.07
61357;BME280;47227;46.752;23.576;2023-03-05T14:57:25;95553.27;;;4.11;54.25
61357;BME280;47227;46.752;23.576;2023-03-05T14:59:53;95554.97;;;4.10;53.93
61357;BME280;47227;46.752;23.576;2023-03-05T15:02:24;95555.91;;;4.19;53.30
61357;BME280;47227;46.752;23.576;2023-03-05T15:04:52;95557.31;;;4.23;53.35
61357;BME280;47227;46.752;23.576;2023-03-05T15:07:26;95562.46;;;4.15;54.78
61357;BME280;47227;46.752;23.576;2023-03-05T15:09:55;95558.16;;;4.07;55.24
61357;BME280;47227;46.752;23.576;2023-03-05T15:12:24;95558.84;;;3.94;56.04
61357;BME280;47227;46.752;23.576;2023-03-05T15:14:54;95558.55;;;3.92;56.22
61357;BME280;47227;46.752;23.576;2023-03-05T15:17:32;95560.45;;;3.92;56.27
61357;BME280;47227;46.752;23.576;2023-03-05T15:20:03;95556.83;;;3.71;57.17
61357;BME280;47227;46.752;23.576;2023-03-05T15:22:36;95555.54;;;3.63;57.57
61357;BME280;47227;46.752;23.576;2023-03-05T15:25:05;95551.77;;;3.53;57.69
61357;BME280;47227;46.752;23.576;2023-03-05T15:27:33;95553.63;;;3.45;57.78
61357;BME280;47227;46.752;23.576;2023-03-05T15:30:01;95551.23;;;3.33;57.91
61357;BME280;47227;46.752;23.576;2023-03-05T15:32:30;95553.09;;;3.43;56.94
61357;BME280;47227;46.752;23.576;2023-03-05T15:34:58;95558.27;;;3.44;54.61
61357;BME280;47227;46.752;23.576;2023-03-05T15:37:26;95558.45;;;3.41;53.15
61357;BME280;47227;46.752;23.576;2023-03-05T15:39:56;95555.81;;;3.41;53.03
61357;BME280;47227;46.752;23.576;2023-03-05T15:42:24;95561.35;;;3.37;52.33
61357;BME280;47227;46.752;23.576;2023-03-05T15:44:54;95558.45;;;3.35;52.35
61357;BME280;47227;46.752;23.576;2023-03-05T15:47:22;95555.39;;;3.31;52.16
61357;BME280;47227;46.752;23.576;2023-03-05T15:49:50;95558.91;;;3.33;51.92
61357;BME280;47227;46.752;23.576;2023-03-05T15:52:18;95560.48;;;3.32;51.65
61357;BME280;47227;46.752;23.576;2023-03-05T15:54:46;95565.97;;;3.31;51.27
61357;BME280;47227;46.752;23.576;2023-03-05T15:57:13;95558.95;;;3.31;51.21
61357;BME280;47227;46.752;23.576;2023-03-05T15:59:41;95562.02;;;3.29;51.36
61357;BME280;47227;46.752;23.576;2023-03-05T16:02:09;95561.83;;;3.27;51.07
61357;BME280;47227;46.752;23.576;2023-03-05T16:04:38;95560.77;;;3.26;51.20
61357;BME280;47227;46.752;23.576;2023-03-05T16:07:07;95564.50;;;3.23;51.49
61357;BME280;47227;46.752;23.576;2023-03-05T16:09:38;95565.75;;;3.19;51.34
61357;BME280;47227;46.752;23.576;2023-03-05T16:12:11;95565.56;;;3.18;51.22
61357;BME280;47227;46.752;23.576;2023-03-05T16:14:41;95567.75;;;3.15;51.25
61357;BME280;47227;46.752;23.576;2023-03-05T16:17:10;95568.09;;;3.10;51.61
61357;BME280;47227;46.752;23.576;2023-03-05T16:19:41;95566.88;;;3.07;51.53
61357;BME280;47227;46.752;23.576;2023-03-05T16:22:11;95567.00;;;3.00;51.68
61357;BME280;47227;46.752;23.576;2023-03-05T16:24:39;95570.02;;;2.92;51.94
61357;BME280;47227;46.752;23.576;2023-03-05T16:27:07;95571.91;;;2.89;52.21
61357;BME280;47227;46.752;23.576;2023-03-05T16:29:37;95574.80;;;2.86;52.06
61357;BME280;47227;46.752;23.576;2023-03-05T16:32:06;95573.73;;;2.86;52.08
61357;BME280;47227;46.752;23.576;2023-03-05T16:34:34;95575.81;;;2.85;52.25
61357;BME280;47227;46.752;23.576;2023-03-05T16:37:02;95570.51;;;2.78;52.64
61357;BME280;47227;46.752;23.576;2023-03-05T16:39:33;95575.45;;;2.73;52.74
61357;BME280;47227;46.752;23.576;2023-03-05T16:42:01;95579.94;;;2.75;52.84
61357;BME280;47227;46.752;23.576;2023-03-05T16:44:31;95577.61;;;2.69;53.18
61357;BME280;47227;46.752;23.576;2023-03-05T16:46:59;95575.53;;;2.69;53.02
61357;BME280;47227;46.752;23.576;2023-03-05T16:49:27;95574.92;;;2.59;53.55
61357;BME280;47227;46.752;23.576;2023-03-05T16:51:55;95582.45;;;2.62;53.67
61357;BME280;47227;46.752;23.576;2023-03-05T16:54:27;95585.25;;;2.62;53.69
61357;BME280;47227;46.752;23.576;2023-03-05T16:56:56;95584.30;;;2.61;53.76
61357;BME280;47227;46.752;23.576;2023-03-05T16:59:24;95589.41;;;2.58;53.58
61357;BME280;47227;46.752;23.576;2023-03-05T17:01:52;95591.59;;;2.58;53.50
61357;BME280;47227;46.752;23.576;2023-03-05T17:04:20;95593.21;;;2.57;53.42
61357;BME280;47227;46.752;23.576;2023-03-05T17:06:48;95589.06;;;2.54;53.48
61357;BME280;47227;46.752;23.576;2023-03-05T17:09:16;95595.16;;;2.52;53.36
61357;BME280;47227;46.752;23.576;2023-03-05T17:11:51;95593.84;;;2.48;53.14
61357;BME280;47227;46.752;23.576;2023-03-05T17:14:19;95599.09;;;2.50;53.11
61357;BME280;47227;46.752;23.576;2023-03-05T17:16:47;95601.61;;;2.51;53.01
61357;BME280;47227;46.752;23.576;2023-03-05T17:19:15;95602.15;;;2.50;52.97
61357;BME280;47227;46.752;23.576;2023-03-05T17:21:44;95608.65;;;2.49;52.65
61357;BME280;47227;46.752;23.576;2023-03-05T17:24:12;95612.43;;;2.51;52.55
61357;BME280;47227;46.752;23.576;2023-03-05T17:26:40;95601.25;;;2.49;52.68
61357;BME280;47227;46.752;23.576;2023-03-05T17:29:09;95611.05;;;2.52;52.90
61357;BME280;47227;46.752;23.576;2023-03-05T17:31:37;95611.41;;;2.53;52.71
61357;BME280;47227;46.752;23.576;2023-03-05T17:34:05;95618.69;;;2.54;52.86
61357;BME280;47227;46.752;23.576;2023-03-05T17:36:33;95613.35;;;2.55;52.58
61357;BME280;47227;46.752;23.576;2023-03-05T17:39:01;95619.48;;;2.56;52.66
61357;BME280;47227;46.752;23.576;2023-03-05T17:41:29;95619.80;;;2.56;52.49
61357;BME280;47227;46.752;23.576;2023-03-05T17:43:57;95617.23;;;2.56;52.24
61357;BME280;47227;46.752;23.576;2023-03-05T17:46:26;95616.97;;;2.55;52.11
61357;BME280;47227;46.752;23.576;2023-03-05T17:48:54;95620.91;;;2.55;52.24
61357;BME280;47227;46.752;23.576;2023-03-05T17:51:22;95620.27;;;2.55;52.46
61357;BME280;47227;46.752;23.576;2023-03-05T17:53:50;95618.64;;;2.56;52.61
61357;BME280;47227;46.752;23.576;2023-03-05T17:56:18;95617.98;;;2.54;52.57
61357;BME280;47227;46.752;23.576;2023-03-05T17:58:48;95620.69;;;2.53;52.66
61357;BME280;47227;46.752;23.576;2023-03-05T18:01:27;95618.66;;;2.53;52.39
61357;BME280;47227;46.752;23.576;2023-03-05T18:03:56;95614.80;;;2.52;52.42
61357;BME280;47227;46.752;23.576;2023-03-05T18:06:26;95620.02;;;2.52;52.22
61357;BME280;47227;46.752;23.576;2023-03-05T18:08:54;95617.69;;;2.51;52.21
61357;BME280;47227;46.752;23.576;2023-03-05T18:11:22;95621.43;;;2.51;51.77
61357;BME280;47227;46.752;23.576;2023-03-05T18:13:51;95621.15;;;2.50;51.77
61357;BME280;47227;46.752;23.576;2023-03-05T18:16:19;95621.75;;;2.50;51.77
61357;BME280;47227;46.752;23.576;2023-03-05T18:18:48;95622.80;;;2.48;51.65
61357;BME280;47227;46.752;23.576;2023-03-05T18:21:19;95628.42;;;2.47;51.15
61357;BME280;47227;46.752;23.576;2023-03-05T18:23:47;95627.30;;;2.47;50.81
61357;BME280;47227;46.752;23.576;2023-03-05T18:26:16;95626.48;;;2.47;50.48
61357;BME280;47227;46.752;23.576;2023-03-05T18:28:44;95626.64;;;2.45;50.70
61357;BME280;47227;46.752;23.576;2023-03-05T18:31:12;95623.25;;;2.45;50.68
61357;BME280;47227;46.752;23.576;2023-03-05T18:33:41;95627.57;;;2.45;50.37
61357;BME280;47227;46.752;23.576;2023-03-05T18:36:10;95629.25;;;2.44;49.87
61357;BME280;47227;46.752;23.576;2023-03-05T18:38:39;95625.00;;;2.46;49.14
61357;BME280;47227;46.752;23.576;2023-03-05T18:41:07;95626.44;;;2.47;49.11
61357;BME280;47227;46.752;23.576;2023-03-05T18:43:35;95627.65;;;2.48;48.83
61357;BME280;47227;46.752;23.576;2023-03-05T18:46:03;95628.93;;;2.48;48.97
61357;BME280;47227;46.752;23.576;2023-03-05T18:48:32;95625.66;;;2.49;49.16
61357;BME280;47227;46.752;23.576;2023-03-05T18:51:01;95627.89;;;2.49;48.77
61357;BME280;47227;46.752;23.576;2023-03-05T18:53:29;95622.80;;;2.48;48.86
61357;BME280;47227;46.752;23.576;2023-03-05T18:55:57;95620.45;;;2.48;49.05
61357;BME280;47227;46.752;23.576;2023-03-05T18:58:25;95622.31;;;2.48;48.98
61357;BME280;47227;46.752;23.576;2023-03-05T19:00:53;95623.23;;;2.47;49.01
61357;BME280;47227;46.752;23.576;2023-03-05T19:03:21;95619.34;;;2.47;49.17
61357;BME280;47227;46.752;23.576;2023-03-05T19:05:49;95622.09;;;2.43;49.01
61357;BME280;47227;46.752;23.576;2023-03-05T19:08:19;95622.20;;;2.44;48.78
61357;BME280;47227;46.752;23.576;2023-03-05T19:10:47;95623.95;;;2.42;48.83
61357;BME280;47227;46.752;23.576;2023-03-05T19:13:36;95623.16;;;2.43;49.15
61357;BME280;47227;46.752;23.576;2023-03-05T19:16:15;95623.83;;;2.43;48.98
61357;BME280;47227;46.752;23.576;2023-03-05T19:21:49;95626.98;;;2.44;49.31
61357;BME280;47227;46.752;23.576;2023-03-05T19:24:21;95628.64;;;2.45;49.22
61357;BME280;47227;46.752;23.576;2023-03-05T19:26:49;95628.84;;;2.46;49.19
61357;BME280;47227;46.752;23.576;2023-03-05T19:29:23;95632.41;;;2.46;49.27
61357;BME280;47227;46.752;23.576;2023-03-05T19:31:52;95627.31;;;2.45;49.32
61357;BME280;47227;46.752;23.576;2023-03-05T19:34:21;95629.14;;;2.46;49.35
61357;BME280;47227;46.752;23.576;2023-03-05T19:36:49;95636.83;;;2.45;49.35
61357;BME280;47227;46.752;23.576;2023-03-05T19:39:17;95636.64;;;2.45;49.59
61357;BME280;47227;46.752;23.576;2023-03-05T19:41:46;95638.02;;;2.47;49.79
61357;BME280;47227;46.752;23.576;2023-03-05T19:44:14;95636.74;;;2.47;49.67
61357;BME280;47227;46.752;23.576;2023-03-05T19:46:42;95635.40;;;2.47;49.81
61357;BME280;47227;46.752;23.576;2023-03-05T19:49:10;95637.10;;;2.47;49.92
61357;BME280;47227;46.752;23.576;2023-03-05T19:51:40;95636.98;;;2.43;50.49
61357;BME280;47227;46.752;23.576;2023-03-05T19:54:10;95640.91;;;2.34;51.23
61357;BME280;47227;46.752;23.576;2023-03-05T19:56:39;95638.61;;;2.32;51.18